sensor_id;sensor_type;location;lat;lon;timestamp;P1;durP1;ratioP1;P2;durP2;ratioP2
1414;SDS011;702;49.466;11.086;2022-08-01T00:01:15;4.93;;;4.60;;
1414;SDS011;702;49.466;11.086;2022-08-01T00:03:42;5.13;;;4.70;;
1414;SDS011;702;49.466;11.086;2022-08-01T00:06:09;4.97;;;4.67;;
1414;SDS011;702;49.466;11.086;2022-08-01T00:08:37;5.90;;;5.03;;
1414;SDS011;702;49.466;11.086;2022-08-01T00:11:05;5.93;;;5.40;;
1414;SDS011;702;49.466;11.086;2022-08-01T00:13:34;4.97;;;4.67;;
1414;SDS011;702;49.466;11.086;2022-08-01T00:16:02;5.80;;;5.30;;
1414;SDS011;702;49.466;11.086;2022-08-01T00:18:29;5.07;;;4.70;;
1414;SDS011;702;49.466;11.086;2022-08-01T00:20:56;5.83;;;5.33;;
1414;SDS011;702;49.466;11.086;2022-08-01T00:23:24;5.37;;;4.93;;
1414;SDS011;702;49.466;11.086;2022-08-01T00:25:51;5.43;;;5.03;;
1414;SDS011;702;49.466;11.086;2022-08-01T00:28:20;6.03;;;5.30;;
1414;SDS011;702;49.466;11.086;2022-08-01T00:30:47;5.47;;;5.10;;
1414;SDS011;702;49.466;11.086;2022-08-01T00:33:14;5.83;;;5.43;;
1414;SDS011;702;49.466;11.086;2022-08-01T00:35:42;5.63;;;5.13;;
1414;SDS011;702;49.466;11.086;2022-08-01T00:38:09;5.40;;;5.00;;
1414;SDS011;702;49.466;11.086;2022-08-01T00:40:37;6.30;;;5.80;;
1414;SDS011;702;49.466;11.086;2022-08-01T00:43:04;6.47;;;5.97;;
1414;SDS011;702;49.466;11.086;2022-08-01T00:45:33;5.30;;;5.00;;
1414;SDS011;702;49.466;11.086;2022-08-01T00:48:00;5.90;;;5.30;;
1414;SDS011;702;49.466;11.086;2022-08-01T00:50:27;6.17;;;5.67;;
1414;SDS011;702;49.466;11.086;2022-08-01T00:52:55;5.60;;;5.10;;
1414;SDS011;702;49.466;11.086;2022-08-01T00:55:25;5.63;;;5.13;;
1414;SDS011;702;49.466;11.086;2022-08-01T00:57:53;6.00;;;5.60;;
1414;SDS011;702;49.466;11.086;2022-08-01T01:00:22;6.87;;;6.30;;
1414;SDS011;702;49.466;11.086;2022-08-01T01:02:50;6.33;;;5.87;;
1414;SDS011;702;49.466;11.086;2022-08-01T01:05:18;7.10;;;6.50;;
1414;SDS011;702;49.466;11.086;2022-08-01T01:07:46;6.40;;;6.00;;
1414;SDS011;702;49.466;11.086;2022-08-01T01:10:21;6.43;;;5.83;;
1414;SDS011;702;49.466;11.086;2022-08-01T01:12:55;6.80;;;6.20;;
1414;SDS011;702;49.466;11.086;2022-08-01T01:15:30;8.50;;;7.90;;
1414;SDS011;702;49.466;11.086;2022-08-01T01:18:08;6.80;;;6.30;;
1414;SDS011;702;49.466;11.086;2022-08-01T01:20:43;6.40;;;5.93;;
1414;SDS011;702;49.466;11.086;2022-08-01T01:23:21;7.77;;;7.07;;
1414;SDS011;702;49.466;11.086;2022-08-01T01:26:09;7.97;;;7.27;;
1414;SDS011;702;49.466;11.086;2022-08-01T01:29:03;8.37;;;7.67;;
1414;SDS011;702;49.466;11.086;2022-08-01T01:31:38;8.60;;;7.70;;
1414;SDS011;702;49.466;11.086;2022-08-01T01:34:11;8.17;;;7.37;;
1414;SDS011;702;49.466;11.086;2022-08-01T01:36:40;7.70;;;7.00;;
1414;SDS011;702;49.466;11.086;2022-08-01T01:39:09;7.00;;;6.50;;
1414;SDS011;702;49.466;11.086;2022-08-01T01:41:36;7.27;;;6.67;;
1414;SDS011;702;49.466;11.086;2022-08-01T01:44:06;6.97;;;6.37;;
1414;SDS011;702;49.466;11.086;2022-08-01T01:46:35;5.80;;;5.30;;
1414;SDS011;702;49.466;11.086;2022-08-01T01:49:04;5.87;;;5.37;;
1414;SDS011;702;49.466;11.086;2022-08-01T01:51:35;5.47;;;5.17;;
1414;SDS011;702;49.466;11.086;2022-08-01T01:54:03;6.23;;;5.73;;
1414;SDS011;702;49.466;11.086;2022-08-01T01:56:32;6.53;;;6.03;;
1414;SDS011;702;49.466;11.086;2022-08-01T01:59:15;6.43;;;6.03;;
1414;SDS011;702;49.466;11.086;2022-08-01T02:01:46;5.70;;;4.90;;
1414;SDS011;702;49.466;11.086;2022-08-01T02:04:16;6.67;;;5.63;;
1414;SDS011;702;49.466;11.086;2022-08-01T02:06:45;6.00;;;5.60;;
1414;SDS011;702;49.466;11.086;2022-08-01T02:09:14;5.53;;;5.13;;
1414;SDS011;702;49.466;11.086;2022-08-01T02:11:43;6.10;;;5.60;;
1414;SDS011;702;49.466;11.086;2022-08-01T02:14:14;6.47;;;5.67;;
1414;SDS011;702;49.466;11.086;2022-08-01T02:16:45;5.80;;;5.17;;
1414;SDS011;702;49.466;11.086;2022-08-01T02:19:16;5.40;;;4.90;;
1414;SDS011;702;49.466;11.086;2022-08-01T02:21:46;6.03;;;5.63;;
1414;SDS011;702;49.466;11.086;2022-08-01T02:24:19;6.73;;;6.13;;
1414;SDS011;702;49.466;11.086;2022-08-01T02:26:52;6.47;;;5.97;;
1414;SDS011;702;49.466;11.086;2022-08-01T02:29:24;13.43;;;6.77;;
1414;SDS011;702;49.466;11.086;2022-08-01T02:31:55;6.63;;;6.13;;
1414;SDS011;702;49.466;11.086;2022-08-01T02:34:24;6.90;;;6.40;;
1414;SDS011;702;49.466;11.086;2022-08-01T02:36:57;6.40;;;6.00;;
1414;SDS011;702;49.466;11.086;2022-08-01T02:39:27;6.73;;;6.07;;
1414;SDS011;702;49.466;11.086;2022-08-01T02:41:58;6.87;;;5.90;;
1414;SDS011;702;49.466;11.086;2022-08-01T02:44:32;6.07;;;5.60;;
1414;SDS011;702;49.466;11.086;2022-08-01T02:47:04;6.43;;;5.93;;
1414;SDS011;702;49.466;11.086;2022-08-01T02:49:33;8.27;;;6.00;;
1414;SDS011;702;49.466;11.086;2022-08-01T02:52:05;6.60;;;6.10;;
1414;SDS011;702;49.466;11.086;2022-08-01T02:54:35;6.80;;;5.80;;
1414;SDS011;702;49.466;11.086;2022-08-01T02:57:03;5.57;;;5.17;;
1414;SDS011;702;49.466;11.086;2022-08-01T02:59:35;6.17;;;5.77;;
1414;SDS011;702;49.466;11.086;2022-08-01T03:02:04;6.90;;;6.40;;
1414;SDS011;702;49.466;11.086;2022-08-01T03:04:33;6.10;;;5.70;;
1414;SDS011;702;49.466;11.086;2022-08-01T03:07:02;6.93;;;6.43;;
1414;SDS011;702;49.466;11.086;2022-08-01T03:09:32;5.73;;;5.33;;
1414;SDS011;702;49.466;11.086;2022-08-01T03:12:04;6.30;;;5.70;;
1414;SDS011;702;49.466;11.086;2022-08-01T03:14:40;7.27;;;6.60;;
1414;SDS011;702;49.466;11.086;2022-08-01T03:17:09;7.00;;;6.50;;
1414;SDS011;702;49.466;11.086;2022-08-01T03:19:38;7.10;;;6.50;;
1414;SDS011;702;49.466;11.086;2022-08-01T03:22:07;7.00;;;6.50;;
1414;SDS011;702;49.466;11.086;2022-08-01T03:24:37;7.30;;;6.70;;
1414;SDS011;702;49.466;11.086;2022-08-01T03:27:07;7.43;;;6.83;;
1414;SDS011;702;49.466;11.086;2022-08-01T03:29:36;6.83;;;6.30;;
1414;SDS011;702;49.466;11.086;2022-08-01T03:32:06;11.40;;;7.03;;
1414;SDS011;702;49.466;11.086;2022-08-01T03:34:36;7.93;;;7.33;;
1414;SDS011;702;49.466;11.086;2022-08-01T03:37:05;8.50;;;7.70;;
1414;SDS011;702;49.466;11.086;2022-08-01T03:39:39;7.60;;;7.00;;
1414;SDS011;702;49.466;11.086;2022-08-01T03:42:14;7.43;;;6.83;;
1414;SDS011;702;49.466;11.086;2022-08-01T03:44:47;8.00;;;7.30;;
1414;SDS011;702;49.466;11.086;2022-08-01T03:47:24;8.00;;;7.40;;
1414;SDS011;702;49.466;11.086;2022-08-01T03:49:57;6.97;;;6.47;;
1414;SDS011;702;49.466;11.086;2022-08-01T03:52:25;8.83;;;7.40;;
1414;SDS011;702;49.466;11.086;2022-08-01T03:54:56;7.50;;;7.00;;
1414;SDS011;702;49.466;11.086;2022-08-01T03:57:32;6.80;;;6.40;;
1414;SDS011;702;49.466;11.086;2022-08-01T04:00:00;7.33;;;6.73;;
1414;SDS011;702;49.466;11.086;2022-08-01T04:02:33;8.20;;;7.40;;
1414;SDS011;702;49.466;11.086;2022-08-01T04:05:01;8.03;;;7.43;;
1414;SDS011;702;49.466;11.086;2022-08-01T04:07:31;7.10;;;6.50;;
1414;SDS011;702;49.466;11.086;2022-08-01T04:10:01;7.87;;;6.00;;
1414;SDS011;702;49.466;11.086;2022-08-01T04:12:28;6.97;;;6.37;;
1414;SDS011;702;49.466;11.086;2022-08-01T04:14:55;6.70;;;6.20;;
1414;SDS011;702;49.466;11.086;2022-08-01T04:17:22;6.77;;;6.27;;
1414;SDS011;702;49.466;11.086;2022-08-01T04:19:51;6.47;;;5.83;;
1414;SDS011;702;49.466;11.086;2022-08-01T04:22:18;6.90;;;6.30;;
1414;SDS011;702;49.466;11.086;2022-08-01T04:24:47;6.53;;;6.00;;
1414;SDS011;702;49.466;11.086;2022-08-01T04:27:20;8.57;;;7.80;;
1414;SDS011;702;49.466;11.086;2022-08-01T04:29:50;6.10;;;5.60;;
1414;SDS011;702;49.466;11.086;2022-08-01T04:32:20;6.33;;;5.57;;
1414;SDS011;702;49.466;11.086;2022-08-01T04:34:49;5.43;;;5.03;;
1414;SDS011;702;49.466;11.086;2022-08-01T04:37:21;5.70;;;5.30;;
1414;SDS011;702;49.466;11.086;2022-08-01T04:39:52;5.83;;;5.20;;
1414;SDS011;702;49.466;11.086;2022-08-01T04:42:20;7.83;;;5.80;;
1414;SDS011;702;49.466;11.086;2022-08-01T04:44:48;4.27;;;3.87;;
1414;SDS011;702;49.466;11.086;2022-08-01T04:47:16;4.20;;;3.90;;
1414;SDS011;702;49.466;11.086;2022-08-01T04:49:43;5.63;;;5.10;;
1414;SDS011;702;49.466;11.086;2022-08-01T04:52:12;4.67;;;4.27;;
1414;SDS011;702;49.466;11.086;2022-08-01T04:54:39;4.40;;;4.10;;
1414;SDS011;702;49.466;11.086;2022-08-01T04:57:06;4.37;;;4.07;;
1414;SDS011;702;49.466;11.086;2022-08-01T04:59:36;4.10;;;3.80;;
1414;SDS011;702;49.466;11.086;2022-08-01T05:02:08;5.13;;;3.77;;
1414;SDS011;702;49.466;11.086;2022-08-01T05:04:38;3.93;;;3.53;;
1414;SDS011;702;49.466;11.086;2022-08-01T05:07:06;5.03;;;4.53;;
1414;SDS011;702;49.466;11.086;2022-08-01T05:09:36;4.90;;;4.23;;
1414;SDS011;702;49.466;11.086;2022-08-01T05:12:04;4.40;;;4.10;;
1414;SDS011;702;49.466;11.086;2022-08-01T05:14:34;4.47;;;3.73;;
1414;SDS011;702;49.466;11.086;2022-08-01T05:17:02;3.90;;;3.60;;
1414;SDS011;702;49.466;11.086;2022-08-01T05:19:33;3.83;;;3.53;;
1414;SDS011;702;49.466;11.086;2022-08-01T05:22:03;3.00;;;2.80;;
1414;SDS011;702;49.466;11.086;2022-08-01T05:24:33;3.93;;;3.40;;
1414;SDS011;702;49.466;11.086;2022-08-01T05:27:04;3.97;;;3.47;;
1414;SDS011;702;49.466;11.086;2022-08-01T05:29:33;9.30;;;4.17;;
1414;SDS011;702;49.466;11.086;2022-08-01T05:32:01;3.70;;;3.30;;
1414;SDS011;702;49.466;11.086;2022-08-01T05:34:29;6.27;;;3.60;;
1414;SDS011;702;49.466;11.086;2022-08-01T05:36:56;4.00;;;3.70;;
1414;SDS011;702;49.466;11.086;2022-08-01T05:39:24;3.50;;;3.20;;
1414;SDS011;702;49.466;11.086;2022-08-01T05:41:52;3.33;;;3.07;;
1414;SDS011;702;49.466;11.086;2022-08-01T05:44:21;3.60;;;3.27;;
1414;SDS011;702;49.466;11.086;2022-08-01T05:46:48;5.03;;;3.37;;
1414;SDS011;702;49.466;11.086;2022-08-01T05:49:16;3.30;;;3.00;;
1414;SDS011;702;49.466;11.086;2022-08-01T05:51:43;3.60;;;3.30;;
1414;SDS011;702;49.466;11.086;2022-08-01T05:54:10;3.93;;;3.40;;
1414;SDS011;702;49.466;11.086;2022-08-01T05:56:37;5.50;;;3.57;;
1414;SDS011;702;49.466;11.086;2022-08-01T05:59:06;3.60;;;3.30;;
1414;SDS011;702;49.466;11.086;2022-08-01T06:01:33;4.90;;;2.83;;
1414;SDS011;702;49.466;11.086;2022-08-01T06:04:00;4.30;;;3.50;;
1414;SDS011;702;49.466;11.086;2022-08-01T06:06:27;3.50;;;3.20;;
1414;SDS011;702;49.466;11.086;2022-08-01T06:08:55;2.97;;;2.67;;
1414;SDS011;702;49.466;11.086;2022-08-01T06:11:22;2.90;;;2.70;;
1414;SDS011;702;49.466;11.086;2022-08-01T06:13:49;3.60;;;3.20;;
1414;SDS011;702;49.466;11.086;2022-08-01T06:16:18;4.50;;;3.70;;
1414;SDS011;702;49.466;11.086;2022-08-01T06:18:45;3.30;;;3.10;;
1414;SDS011;702;49.466;11.086;2022-08-01T06:21:12;4.07;;;3.37;;
1414;SDS011;702;49.466;11.086;2022-08-01T06:23:39;3.20;;;3.00;;
1414;SDS011;702;49.466;11.086;2022-08-01T06:26:07;3.43;;;3.13;;
1414;SDS011;702;49.466;11.086;2022-08-01T06:28:34;4.13;;;3.73;;
1414;SDS011;702;49.466;11.086;2022-08-01T06:31:02;3.37;;;2.80;;
1414;SDS011;702;49.466;11.086;2022-08-01T06:33:30;3.30;;;2.60;;
1414;SDS011;702;49.466;11.086;2022-08-01T06:35:58;2.87;;;2.60;;
1414;SDS011;702;49.466;11.086;2022-08-01T06:38:26;3.33;;;3.03;;
1414;SDS011;702;49.466;11.086;2022-08-01T06:40:53;3.00;;;2.73;;
1414;SDS011;702;49.466;11.086;2022-08-01T06:43:20;3.07;;;2.53;;
1414;SDS011;702;49.466;11.086;2022-08-01T06:45:47;3.00;;;2.80;;
1414;SDS011;702;49.466;11.086;2022-08-01T06:48:15;3.17;;;2.83;;
1414;SDS011;702;49.466;11.086;2022-08-01T06:50:44;5.83;;;3.00;;
1414;SDS011;702;49.466;11.086;2022-08-01T06:53:11;4.80;;;2.97;;
1414;SDS011;702;49.466;11.086;2022-08-01T06:55:38;3.70;;;3.00;;
1414;SDS011;702;49.466;11.086;2022-08-01T06:58:06;2.70;;;2.40;;
1414;SDS011;702;49.466;11.086;2022-08-01T07:00:33;2.83;;;2.63;;
1414;SDS011;702;49.466;11.086;2022-08-01T07:03:00;3.30;;;2.90;;
1414;SDS011;702;49.466;11.086;2022-08-01T07:05:27;2.83;;;2.63;;
1414;SDS011;702;49.466;11.086;2022-08-01T07:07:57;4.07;;;2.70;;
1414;SDS011;702;49.466;11.086;2022-08-01T07:10:25;5.53;;;3.50;;
1414;SDS011;702;49.466;11.086;2022-08-01T07:12:52;3.53;;;2.60;;
1414;SDS011;702;49.466;11.086;2022-08-01T07:15:19;4.87;;;2.93;;
1414;SDS011;702;49.466;11.086;2022-08-01T07:17:51;3.27;;;2.40;;
1414;SDS011;702;49.466;11.086;2022-08-01T07:20:19;3.20;;;2.93;;
1414;SDS011;702;49.466;11.086;2022-08-01T07:22:46;3.30;;;3.00;;
1414;SDS011;702;49.466;11.086;2022-08-01T07:25:14;3.07;;;2.80;;
1414;SDS011;702;49.466;11.086;2022-08-01T07:27:42;3.10;;;2.90;;
1414;SDS011;702;49.466;11.086;2022-08-01T07:30:10;2.93;;;2.63;;
1414;SDS011;702;49.466;11.086;2022-08-01T07:32:38;3.23;;;3.03;;
1414;SDS011;702;49.466;11.086;2022-08-01T07:35:06;3.97;;;3.30;;
1414;SDS011;702;49.466;11.086;2022-08-01T07:37:34;3.10;;;2.90;;
1414;SDS011;702;49.466;11.086;2022-08-01T07:40:01;3.07;;;2.80;;
1414;SDS011;702;49.466;11.086;2022-08-01T07:42:32;2.47;;;2.37;;
1414;SDS011;702;49.466;11.086;2022-08-01T07:44:59;8.10;;;3.33;;
1414;SDS011;702;49.466;11.086;2022-08-01T07:47:26;3.90;;;2.50;;
1414;SDS011;702;49.466;11.086;2022-08-01T07:49:58;6.00;;;2.43;;
1414;SDS011;702;49.466;11.086;2022-08-01T07:52:27;3.00;;;2.47;;
1414;SDS011;702;49.466;11.086;2022-08-01T07:54:55;2.93;;;2.50;;
1414;SDS011;702;49.466;11.086;2022-08-01T07:57:22;3.70;;;2.57;;
1414;SDS011;702;49.466;11.086;2022-08-01T07:59:53;4.27;;;2.80;;
1414;SDS011;702;49.466;11.086;2022-08-01T08:02:20;5.20;;;2.50;;
1414;SDS011;702;49.466;11.086;2022-08-01T08:04:48;2.60;;;2.17;;
1414;SDS011;702;49.466;11.086;2022-08-01T08:07:15;2.47;;;2.27;;
1414;SDS011;702;49.466;11.086;2022-08-01T08:09:42;2.77;;;2.10;;
1414;SDS011;702;49.466;11.086;2022-08-01T08:12:10;2.50;;;2.30;;
1414;SDS011;702;49.466;11.086;2022-08-01T08:14:37;2.73;;;2.53;;
1414;SDS011;702;49.466;11.086;2022-08-01T08:17:06;3.03;;;2.83;;
1414;SDS011;702;49.466;11.086;2022-08-01T08:19:33;3.30;;;3.10;;
1414;SDS011;702;49.466;11.086;2022-08-01T08:22:03;3.67;;;3.10;;
1414;SDS011;702;49.466;11.086;2022-08-01T08:24:30;3.53;;;3.23;;
1414;SDS011;702;49.466;11.086;2022-08-01T08:26:57;5.23;;;3.53;;
1414;SDS011;702;49.466;11.086;2022-08-01T08:29:27;9.80;;;3.17;;
1414;SDS011;702;49.466;11.086;2022-08-01T08:31:57;3.10;;;2.80;;
1414;SDS011;702;49.466;11.086;2022-08-01T08:34:27;3.73;;;3.10;;
1414;SDS011;702;49.466;11.086;2022-08-01T08:36:56;3.37;;;3.00;;
1414;SDS011;702;49.466;11.086;2022-08-01T08:39:25;3.90;;;3.13;;
1414;SDS011;702;49.466;11.086;2022-08-01T08:41:55;3.53;;;3.23;;
1414;SDS011;702;49.466;11.086;2022-08-01T08:44:23;3.73;;;3.13;;
1414;SDS011;702;49.466;11.086;2022-08-01T08:46:51;2.53;;;2.33;;
1414;SDS011;702;49.466;11.086;2022-08-01T08:49:21;2.50;;;2.20;;
1414;SDS011;702;49.466;11.086;2022-08-01T08:51:53;4.90;;;2.47;;
1414;SDS011;702;49.466;11.086;2022-08-01T08:54:25;2.10;;;2.00;;
1414;SDS011;702;49.466;11.086;2022-08-01T08:56:54;3.57;;;2.20;;
1414;SDS011;702;49.466;11.086;2022-08-01T08:59:22;2.77;;;2.57;;
1414;SDS011;702;49.466;11.086;2022-08-01T09:01:50;2.50;;;2.23;;
1414;SDS011;702;49.466;11.086;2022-08-01T09:04:18;3.10;;;2.40;;
1414;SDS011;702;49.466;11.086;2022-08-01T09:06:47;3.13;;;2.50;;
1414;SDS011;702;49.466;11.086;2022-08-01T09:09:16;2.30;;;2.10;;
1414;SDS011;702;49.466;11.086;2022-08-01T09:11:44;2.20;;;2.10;;
1414;SDS011;702;49.466;11.086;2022-08-01T09:14:12;2.50;;;2.30;;
1414;SDS011;702;49.466;11.086;2022-08-01T09:16:47;2.13;;;2.03;;
1414;SDS011;702;49.466;11.086;2022-08-01T09:19:26;2.37;;;2.23;;
1414;SDS011;702;49.466;11.086;2022-08-01T09:22:03;2.43;;;2.10;;
1414;SDS011;702;49.466;11.086;2022-08-01T09:24:34;3.40;;;2.20;;
1414;SDS011;702;49.466;11.086;2022-08-01T09:27:14;2.70;;;2.50;;
1414;SDS011;702;49.466;11.086;2022-08-01T09:29:43;3.03;;;2.03;;
1414;SDS011;702;49.466;11.086;2022-08-01T09:32:11;1.70;;;1.60;;
1414;SDS011;702;49.466;11.086;2022-08-01T09:34:38;2.77;;;2.00;;
1414;SDS011;702;49.466;11.086;2022-08-01T09:37:05;2.40;;;2.10;;
1414;SDS011;702;49.466;11.086;2022-08-01T09:39:36;1.90;;;1.80;;
1414;SDS011;702;49.466;11.086;2022-08-01T09:42:21;3.17;;;2.13;;
1414;SDS011;702;49.466;11.086;2022-08-01T09:44:50;4.07;;;2.30;;
1414;SDS011;702;49.466;11.086;2022-08-01T09:47:18;4.43;;;2.53;;
1414;SDS011;702;49.466;11.086;2022-08-01T09:49:54;1.90;;;1.80;;
1414;SDS011;702;49.466;11.086;2022-08-01T09:52:24;2.00;;;1.90;;
1414;SDS011;702;49.466;11.086;2022-08-01T09:54:55;2.60;;;1.70;;
1414;SDS011;702;49.466;11.086;2022-08-01T09:57:25;2.73;;;2.00;;
1414;SDS011;702;49.466;11.086;2022-08-01T09:59:54;5.90;;;2.03;;
1414;SDS011;702;49.466;11.086;2022-08-01T10:02:27;2.17;;;2.00;;
1414;SDS011;702;49.466;11.086;2022-08-01T10:04:57;3.23;;;2.20;;
1414;SDS011;702;49.466;11.086;2022-08-01T10:07:25;2.07;;;1.97;;
1414;SDS011;702;49.466;11.086;2022-08-01T10:09:54;1.67;;;1.47;;
1414;SDS011;702;49.466;11.086;2022-08-01T10:12:22;1.93;;;1.60;;
1414;SDS011;702;49.466;11.086;2022-08-01T10:14:50;1.80;;;1.70;;
1414;SDS011;702;49.466;11.086;2022-08-01T10:17:20;1.50;;;1.40;;
1414;SDS011;702;49.466;11.086;2022-08-01T10:19:51;2.40;;;1.90;;
1414;SDS011;702;49.466;11.086;2022-08-01T10:22:22;1.60;;;1.50;;
1414;SDS011;702;49.466;11.086;2022-08-01T10:24:53;1.40;;;1.30;;
1414;SDS011;702;49.466;11.086;2022-08-01T10:27:24;1.87;;;1.13;;
1414;SDS011;702;49.466;11.086;2022-08-01T10:29:54;1.30;;;1.20;;
1414;SDS011;702;49.466;11.086;2022-08-01T10:32:28;2.00;;;1.20;;
1414;SDS011;702;49.466;11.086;2022-08-01T10:34:56;1.53;;;1.43;;
1414;SDS011;702;49.466;11.086;2022-08-01T10:37:24;1.63;;;1.53;;
1414;SDS011;702;49.466;11.086;2022-08-01T10:39:51;1.67;;;1.53;;
1414;SDS011;702;49.466;11.086;2022-08-01T10:42:21;1.87;;;1.77;;
1414;SDS011;702;49.466;11.086;2022-08-01T10:44:48;2.00;;;1.80;;
1414;SDS011;702;49.466;11.086;2022-08-01T10:47:18;1.90;;;1.53;;
1414;SDS011;702;49.466;11.086;2022-08-01T10:49:55;1.47;;;1.37;;
1414;SDS011;702;49.466;11.086;2022-08-01T10:52:29;2.93;;;1.50;;
1414;SDS011;702;49.466;11.086;2022-08-01T10:55:01;1.60;;;1.50;;
1414;SDS011;702;49.466;11.086;2022-08-01T10:57:42;1.70;;;1.60;;
1414;SDS011;702;49.466;11.086;2022-08-01T11:00:13;1.57;;;1.47;;
1414;SDS011;702;49.466;11.086;2022-08-01T11:02:56;1.90;;;1.80;;
1414;SDS011;702;49.466;11.086;2022-08-01T11:05:25;3.43;;;1.63;;
1414;SDS011;702;49.466;11.086;2022-08-01T11:07:54;1.80;;;1.23;;
1414;SDS011;702;49.466;11.086;2022-08-01T11:10:24;2.13;;;1.70;;
1414;SDS011;702;49.466;11.086;2022-08-01T11:12:59;2.53;;;1.33;;
1414;SDS011;702;49.466;11.086;2022-08-01T11:15:29;1.63;;;1.53;;
1414;SDS011;702;49.466;11.086;2022-08-01T11:17:56;1.77;;;1.67;;
1414;SDS011;702;49.466;11.086;2022-08-01T11:20:27;1.47;;;1.37;;
1414;SDS011;702;49.466;11.086;2022-08-01T11:31:43;1.60;;;1.50;;
1414;SDS011;702;49.466;11.086;2022-08-01T11:34:11;1.33;;;1.23;;
1414;SDS011;702;49.466;11.086;2022-08-01T11:36:38;1.43;;;1.33;;
1414;SDS011;702;49.466;11.086;2022-08-01T11:39:10;1.70;;;1.60;;
1414;SDS011;702;49.466;11.086;2022-08-01T11:41:44;2.20;;;1.47;;
1414;SDS011;702;49.466;11.086;2022-08-01T11:44:16;1.30;;;1.20;;
1414;SDS011;702;49.466;11.086;2022-08-01T11:46:57;2.80;;;1.80;;
1414;SDS011;702;49.466;11.086;2022-08-01T11:49:33;1.80;;;1.40;;
1414;SDS011;702;49.466;11.086;2022-08-01T11:52:11;1.50;;;1.40;;
1414;SDS011;702;49.466;11.086;2022-08-01T11:54:42;1.40;;;1.30;;
1414;SDS011;702;49.466;11.086;2022-08-01T11:57:12;3.63;;;1.40;;
1414;SDS011;702;49.466;11.086;2022-08-01T11:59:43;1.30;;;1.20;;
1414;SDS011;702;49.466;11.086;2022-08-01T12:02:20;1.80;;;1.40;;
1414;SDS011;702;49.466;11.086;2022-08-01T12:04:57;1.43;;;1.33;;
1414;SDS011;702;49.466;11.086;2022-08-01T12:07:27;1.73;;;1.40;;
1414;SDS011;702;49.466;11.086;2022-08-01T12:09:58;2.47;;;1.50;;
1414;SDS011;702;49.466;11.086;2022-08-01T12:12:28;2.67;;;1.80;;
1414;SDS011;702;49.466;11.086;2022-08-01T12:14:57;1.70;;;1.60;;
1414;SDS011;702;49.466;11.086;2022-08-01T12:17:27;2.10;;;1.90;;
1414;SDS011;702;49.466;11.086;2022-08-01T12:19:59;4.13;;;1.73;;
1414;SDS011;702;49.466;11.086;2022-08-01T12:22:26;2.27;;;1.50;;
1414;SDS011;702;49.466;11.086;2022-08-01T12:24:54;3.30;;;2.00;;
1414;SDS011;702;49.466;11.086;2022-08-01T12:27:26;3.20;;;1.90;;
1414;SDS011;702;49.466;11.086;2022-08-01T12:29:57;2.20;;;2.00;;
1414;SDS011;702;49.466;11.086;2022-08-01T12:32:26;1.90;;;1.80;;
1414;SDS011;702;49.466;11.086;2022-08-01T12:34:56;2.00;;;1.80;;
1414;SDS011;702;49.466;11.086;2022-08-01T12:37:28;2.10;;;1.83;;
1414;SDS011;702;49.466;11.086;2022-08-01T12:39:56;2.30;;;2.07;;
1414;SDS011;702;49.466;11.086;2022-08-01T12:42:24;3.10;;;2.00;;
1414;SDS011;702;49.466;11.086;2022-08-01T12:44:51;2.27;;;2.07;;
1414;SDS011;702;49.466;11.086;2022-08-01T12:47:24;2.30;;;2.20;;
1414;SDS011;702;49.466;11.086;2022-08-01T12:49:51;2.20;;;2.10;;
1414;SDS011;702;49.466;11.086;2022-08-01T12:52:18;1.80;;;1.70;;
1414;SDS011;702;49.466;11.086;2022-08-01T12:55:03;2.30;;;2.10;;
1414;SDS011;702;49.466;11.086;2022-08-01T12:57:37;2.50;;;2.00;;
1414;SDS011;702;49.466;11.086;2022-08-01T13:00:11;2.30;;;2.10;;
1414;SDS011;702;49.466;11.086;2022-08-01T13:02:59;1.90;;;1.80;;
1414;SDS011;702;49.466;11.086;2022-08-01T13:05:40;4.20;;;1.70;;
1414;SDS011;702;49.466;11.086;2022-08-01T13:08:13;1.43;;;1.30;;
1414;SDS011;702;49.466;11.086;2022-08-01T13:10:43;2.80;;;1.37;;
1414;SDS011;702;49.466;11.086;2022-08-01T13:13:12;2.03;;;1.50;;
1414;SDS011;702;49.466;11.086;2022-08-01T13:15:42;3.53;;;2.13;;
1414;SDS011;702;49.466;11.086;2022-08-01T13:18:24;2.30;;;2.10;;
1414;SDS011;702;49.466;11.086;2022-08-01T13:21:09;2.47;;;1.80;;
1414;SDS011;702;49.466;11.086;2022-08-01T13:23:38;1.90;;;1.80;;
1414;SDS011;702;49.466;11.086;2022-08-01T13:26:06;2.17;;;2.07;;
1414;SDS011;702;49.466;11.086;2022-08-01T13:28:33;2.13;;;2.03;;
1414;SDS011;702;49.466;11.086;2022-08-01T13:31:02;2.00;;;1.90;;
1414;SDS011;702;49.466;11.086;2022-08-01T13:33:41;2.33;;;2.13;;
1414;SDS011;702;49.466;11.086;2022-08-01T13:36:10;2.40;;;2.20;;
1414;SDS011;702;49.466;11.086;2022-08-01T13:38:38;1.80;;;1.70;;
1414;SDS011;702;49.466;11.086;2022-08-01T13:41:23;2.80;;;1.70;;
1414;SDS011;702;49.466;11.086;2022-08-01T13:43:51;4.93;;;2.03;;
1414;SDS011;702;49.466;11.086;2022-08-01T13:46:18;1.63;;;1.40;;
1414;SDS011;702;49.466;11.086;2022-08-01T13:48:47;2.93;;;1.40;;
1414;SDS011;702;49.466;11.086;2022-08-01T13:51:16;1.87;;;1.77;;
1414;SDS011;702;49.466;11.086;2022-08-01T13:53:43;4.60;;;2.50;;
1414;SDS011;702;49.466;11.086;2022-08-01T13:56:10;3.67;;;3.30;;
1414;SDS011;702;49.466;11.086;2022-08-01T13:58:37;2.10;;;2.00;;
1414;SDS011;702;49.466;11.086;2022-08-01T14:01:05;2.30;;;2.10;;
1414;SDS011;702;49.466;11.086;2022-08-01T14:03:32;1.70;;;1.60;;
1414;SDS011;702;49.466;11.086;2022-08-01T14:06:02;2.50;;;1.50;;
1414;SDS011;702;49.466;11.086;2022-08-01T14:08:30;2.00;;;1.53;;
1414;SDS011;702;49.466;11.086;2022-08-01T14:10:59;1.77;;;1.67;;
1414;SDS011;702;49.466;11.086;2022-08-01T14:13:26;2.93;;;1.70;;
1414;SDS011;702;49.466;11.086;2022-08-01T14:15:54;1.30;;;1.20;;
1414;SDS011;702;49.466;11.086;2022-08-01T14:18:22;2.37;;;1.30;;
1414;SDS011;702;49.466;11.086;2022-08-01T14:20:50;1.33;;;1.23;;
1414;SDS011;702;49.466;11.086;2022-08-01T14:23:19;1.47;;;1.27;;
1414;SDS011;702;49.466;11.086;2022-08-01T14:25:46;1.60;;;1.50;;
1414;SDS011;702;49.466;11.086;2022-08-01T14:28:13;1.50;;;1.40;;
1414;SDS011;702;49.466;11.086;2022-08-01T14:30:41;1.73;;;1.33;;
1414;SDS011;702;49.466;11.086;2022-08-01T14:33:09;1.40;;;1.30;;
1414;SDS011;702;49.466;11.086;2022-08-01T14:35:37;2.03;;;1.33;;
1414;SDS011;702;49.466;11.086;2022-08-01T14:38:05;1.30;;;1.20;;
1414;SDS011;702;49.466;11.086;2022-08-01T14:40:34;1.53;;;1.07;;
1414;SDS011;702;49.466;11.086;2022-08-01T14:43:02;1.17;;;1.07;;
1414;SDS011;702;49.466;11.086;2022-08-01T14:45:29;2.13;;;1.10;;
1414;SDS011;702;49.466;11.086;2022-08-01T14:47:57;1.40;;;1.30;;
1414;SDS011;702;49.466;11.086;2022-08-01T14:50:25;1.90;;;1.10;;
1414;SDS011;702;49.466;11.086;2022-08-01T14:52:53;1.63;;;1.53;;
1414;SDS011;702;49.466;11.086;2022-08-01T14:55:21;1.30;;;1.20;;
1414;SDS011;702;49.466;11.086;2022-08-01T14:57:53;1.57;;;1.10;;
1414;SDS011;702;49.466;11.086;2022-08-01T15:00:20;2.00;;;1.40;;
1414;SDS011;702;49.466;11.086;2022-08-01T15:02:47;1.20;;;1.00;;
1414;SDS011;702;49.466;11.086;2022-08-01T15:05:15;1.83;;;1.40;;
1414;SDS011;702;49.466;11.086;2022-08-01T15:07:42;2.00;;;1.30;;
1414;SDS011;702;49.466;11.086;2022-08-01T15:10:10;1.40;;;1.30;;
1414;SDS011;702;49.466;11.086;2022-08-01T15:12:37;2.27;;;1.40;;
1414;SDS011;702;49.466;11.086;2022-08-01T15:15:06;1.10;;;1.00;;
1414;SDS011;702;49.466;11.086;2022-08-01T15:17:35;1.40;;;1.30;;
1414;SDS011;702;49.466;11.086;2022-08-01T15:20:03;1.40;;;1.30;;
1414;SDS011;702;49.466;11.086;2022-08-01T15:22:33;2.03;;;1.13;;
1414;SDS011;702;49.466;11.086;2022-08-01T15:25:00;3.90;;;1.17;;
1414;SDS011;702;49.466;11.086;2022-08-01T15:27:28;1.20;;;1.10;;
1414;SDS011;702;49.466;11.086;2022-08-01T15:29:56;1.00;;;1.00;;
1414;SDS011;702;49.466;11.086;2022-08-01T15:32:24;1.27;;;1.20;;
1414;SDS011;702;49.466;11.086;2022-08-01T15:34:52;2.67;;;1.17;;
1414;SDS011;702;49.466;11.086;2022-08-01T15:37:19;0.97;;;0.90;;
1414;SDS011;702;49.466;11.086;2022-08-01T15:39:47;1.17;;;1.10;;